Forside
METAR-TAF:

METAR-TAF

Lufthavne :

Ottumwa Industrial Airport

Ottumwa, Iowa, USA

Breddekreds: 41-06-24N, længdekreds: 092-26-53W, højde: 258 m

Aktuelle vejr

Denne rapport blev lavet for 45 minutter siden, kl. 16:53 UTC
Vind 15 kt fra sydøst
Temperatur -11°C
Fugtighed 56%
Tryk 1027 hPa
Sigt: 16.1 km
Overskyet i en højde af 11000 ft

METAR: KOTM 211653Z AUTO 13015KT 10SM OVC110 M11/M18 A3034 RMK AO2 SLP294 T11111178

Tid: 11:38 (17:38 UTC)

Vejrudsigter

Denne rapport blev lavet for 6 timer og 13 minutter siden, kl. 11:25 UTC
Foreløbig gælder fra 21 på 12 UTC til 22 på 12 UTC
Vind 11 kt fra østsydøst
Sigt: 10 km
Brudte skyer i en højde af 15000 ft
Fra 21 på 2200 UTC
Vind 19 kt fra østsydøst med vindstød på up til 26 kt
Sigt: 10 km
Brudte skyer i en højde af 6000 ft
Fra 22 på 1000 UTC
Vind 15 kt fra sydøst med vindstød på up til 22 kt
Sigt: 10 km
Overskyet i en højde af 2500 ft

TAF: KOTM 211125Z 2112/2212 12011KT P6SM BKN150 FM212200 12019G26KT P6SM BKN060 FM221000 13015G22KT P6SM OVC025

Vejrobservationer og prognoser fra mere end 4000 lufthavne (METAR og TAF).

De gule og røde prikker repræsenterer de meteorologiske stationer.

Flyt musen over at se navnet på stationen.

Så klik over at se vejr observationer og prognoser.

At skifte det kort: Klik på de grønne knapper med et sort kors for at zoome ind; på den grønne knap med en bindestreg for at zoome ud; eller på de grønne pile for tilstødende kort.


METAR-TAF: